sensor_id;sensor_type;location;lat;lon;timestamp;pressure;altitude;pressure_sealevel;temperature;humidity
30967;BME280;17649;51.836;8.330;2023-01-23T00:00:53;102811.47;;;3.97;100.00
30967;BME280;17649;51.836;8.330;2023-01-23T00:03:54;102810.63;;;4.00;100.00
30967;BME280;17649;51.836;8.330;2023-01-23T00:06:54;102815.81;;;4.04;100.00
30967;BME280;17649;51.836;8.330;2023-01-23T00:09:55;102807.28;;;4.04;100.00
30967;BME280;17649;51.836;8.330;2023-01-23T00:12:55;102807.28;;;4.07;100.00
30967;BME280;17649;51.836;8.330;2023-01-23T00:15:56;102806.44;;;4.05;100.00
30967;BME280;17649;51.836;8.330;2023-01-23T00:18:57;102796.13;;;3.99;100.00
30967;BME280;17649;51.836;8.330;2023-01-23T00:21:59;102801.22;;;3.97;100.00
30967;BME280;17649;51.836;8.330;2023-01-23T00:24:59;102807.19;;;3.95;100.00
30967;BME280;17649;51.836;8.330;2023-01-23T00:28:00;102807.19;;;3.96;100.00
30967;BME280;17649;51.836;8.330;2023-01-23T00:31:05;102796.09;;;3.93;100.00
30967;BME280;17649;51.836;8.330;2023-01-23T00:34:09;102808.03;;;3.92;100.00
30967;BME280;17649;51.836;8.330;2023-01-23T00:37:10;102803.72;;;3.86;100.00
30967;BME280;17649;51.836;8.330;2023-01-23T00:40:11;102807.19;;;3.90;100.00
30967;BME280;17649;51.836;8.330;2023-01-23T00:43:12;102807.13;;;3.85;100.00
30967;BME280;17649;51.836;8.330;2023-01-23T00:46:13;102803.69;;;3.85;100.00
30967;BME280;17649;51.836;8.330;2023-01-23T00:49:13;102804.53;;;3.82;100.00
30967;BME280;17649;51.836;8.330;2023-01-23T00:52:16;102805.41;;;3.83;100.00
30967;BME280;17649;51.836;8.330;2023-01-23T00:55:17;102801.97;;;3.82;100.00
30967;BME280;17649;51.836;8.330;2023-01-23T00:58:17;102804.56;;;3.85;100.00
30967;BME280;17649;51.836;8.330;2023-01-23T01:01:18;102806.31;;;3.91;100.00
30967;BME280;17649;51.836;8.330;2023-01-23T01:04:18;102810.59;;;3.94;100.00
30967;BME280;17649;51.836;8.330;2023-01-23T01:07:18;102812.31;;;3.93;100.00
30967;BME280;17649;51.836;8.330;2023-01-23T01:10:19;102815.72;;;3.94;100.00
30967;BME280;17649;51.836;8.330;2023-01-23T01:13:20;102813.16;;;3.94;100.00
30967;BME280;17649;51.836;8.330;2023-01-23T01:16:20;102820.84;;;3.94;100.00
30967;BME280;17649;51.836;8.330;2023-01-23T01:19:23;102832.81;;;3.95;100.00
30967;BME280;17649;51.836;8.330;2023-01-23T01:22:23;102832.81;;;3.98;100.00
30967;BME280;17649;51.836;8.330;2023-01-23T01:25:24;102827.69;;;3.98;100.00
30967;BME280;17649;51.836;8.330;2023-01-23T01:28:26;102841.38;;;4.00;100.00
30967;BME280;17649;51.836;8.330;2023-01-23T01:31:27;102838.00;;;4.04;100.00
30967;BME280;17649;51.836;8.330;2023-01-23T01:34:27;102833.75;;;4.03;100.00
30967;BME280;17649;51.836;8.330;2023-01-23T01:37:27;102837.97;;;4.01;100.00
30967;BME280;17649;51.836;8.330;2023-01-23T01:40:32;102851.69;;;4.06;100.00
30967;BME280;17649;51.836;8.330;2023-01-23T01:43:33;102848.28;;;4.07;100.00
30967;BME280;17649;51.836;8.330;2023-01-23T01:46:33;102849.13;;;4.06;100.00
30967;BME280;17649;51.836;8.330;2023-01-23T01:49:33;102840.59;;;4.05;100.00
30967;BME280;17649;51.836;8.330;2023-01-23T01:52:34;102845.72;;;4.08;100.00
30967;BME280;17649;51.836;8.330;2023-01-23T01:55:35;102848.22;;;4.01;100.00
30967;BME280;17649;51.836;8.330;2023-01-23T01:58:36;102849.97;;;4.06;100.00
30967;BME280;17649;51.836;8.330;2023-01-23T02:01:38;102844.88;;;4.09;100.00
30967;BME280;17649;51.836;8.330;2023-01-23T02:04:43;102849.13;;;4.06;100.00
30967;BME280;17649;51.836;8.330;2023-01-23T02:07:55;102849.97;;;4.02;100.00
30967;BME280;17649;51.836;8.330;2023-01-23T02:10:57;102860.16;;;3.97;100.00
30967;BME280;17649;51.836;8.330;2023-01-23T02:14:01;102859.25;;;3.91;100.00
30967;BME280;17649;51.836;8.330;2023-01-23T02:17:01;102854.13;;;3.91;100.00
30967;BME280;17649;51.836;8.330;2023-01-23T02:26:40;102861.81;;;3.91;100.00
30967;BME280;17649;51.836;8.330;2023-01-23T02:29:43;102867.84;;;3.99;100.00
30967;BME280;17649;51.836;8.330;2023-01-23T02:32:44;102866.19;;;4.05;100.00
30967;BME280;17649;51.836;8.330;2023-01-23T02:35:44;102866.97;;;3.95;100.00
30967;BME280;17649;51.836;8.330;2023-01-23T02:42:05;102879.81;;;4.00;100.00
30967;BME280;17649;51.836;8.330;2023-01-23T02:45:06;102890.00;;;3.94;100.00
30967;BME280;17649;51.836;8.330;2023-01-23T02:48:06;102895.16;;;3.97;100.00
30967;BME280;17649;51.836;8.330;2023-01-23T02:51:07;102887.44;;;3.94;100.00
30967;BME280;17649;51.836;8.330;2023-01-23T02:54:08;102886.56;;;3.90;100.00
30967;BME280;17649;51.836;8.330;2023-01-23T02:57:09;102891.69;;;3.90;100.00
30967;BME280;17649;51.836;8.330;2023-01-23T03:00:10;102894.25;;;3.88;100.00
30967;BME280;17649;51.836;8.330;2023-01-23T03:03:19;102883.03;;;3.77;100.00
30967;BME280;17649;51.836;8.330;2023-01-23T03:06:19;102883.06;;;3.79;100.00
30967;BME280;17649;51.836;8.330;2023-01-23T03:09:20;102887.34;;;3.81;100.00
30967;BME280;17649;51.836;8.330;2023-01-23T03:12:21;102897.72;;;3.97;100.00
30967;BME280;17649;51.836;8.330;2023-01-23T03:15:21;102888.31;;;3.97;100.00
30967;BME280;17649;51.836;8.330;2023-01-23T03:18:24;102894.41;;;4.10;100.00
30967;BME280;17649;51.836;8.330;2023-01-23T03:21:26;102889.19;;;4.01;100.00
30967;BME280;17649;51.836;8.330;2023-01-23T03:24:27;102886.63;;;3.98;100.00
30967;BME280;17649;51.836;8.330;2023-01-23T03:27:27;102894.28;;;3.95;100.00
30967;BME280;17649;51.836;8.330;2023-01-23T03:30:28;102888.34;;;3.99;100.00
30967;BME280;17649;51.836;8.330;2023-01-23T03:33:28;102899.56;;;4.13;100.00
30967;BME280;17649;51.836;8.330;2023-01-23T03:36:29;102893.66;;;4.23;100.00
30967;BME280;17649;51.836;8.330;2023-01-23T03:39:29;102890.25;;;4.27;100.00
30967;BME280;17649;51.836;8.330;2023-01-23T03:42:48;102887.69;;;4.24;100.00
30967;BME280;17649;51.836;8.330;2023-01-23T03:45:48;102888.44;;;4.11;100.00
30967;BME280;17649;51.836;8.330;2023-01-23T03:48:49;102885.78;;;3.99;100.00
30967;BME280;17649;51.836;8.330;2023-01-23T03:51:49;102890.78;;;3.86;100.00
30967;BME280;17649;51.836;8.330;2023-01-23T03:54:50;102877.97;;;3.83;100.00
30967;BME280;17649;51.836;8.330;2023-01-23T03:57:51;102874.66;;;3.98;100.00
30967;BME280;17649;51.836;8.330;2023-01-23T04:00:51;102868.69;;;3.95;100.00
30967;BME280;17649;51.836;8.330;2023-01-23T04:03:52;102859.25;;;3.92;100.00
30967;BME280;17649;51.836;8.330;2023-01-23T04:06:52;102851.50;;;3.83;100.00
30967;BME280;17649;51.836;8.330;2023-01-23T04:09:52;102854.75;;;3.62;100.00
30967;BME280;17649;51.836;8.330;2023-01-23T04:12:52;102854.72;;;3.57;100.00
30967;BME280;17649;51.836;8.330;2023-01-23T04:15:53;102861.59;;;3.66;100.00
30967;BME280;17649;51.836;8.330;2023-01-23T04:18:53;102863.31;;;3.69;100.00
30967;BME280;17649;51.836;8.330;2023-01-23T04:21:54;102860.00;;;3.80;100.00
30967;BME280;17649;51.836;8.330;2023-01-23T04:24:54;102872.81;;;3.80;100.00
30967;BME280;17649;51.836;8.330;2023-01-23T04:27:54;102871.06;;;3.75;100.00
30967;BME280;17649;51.836;8.330;2023-01-23T04:30:54;102871.97;;;3.80;100.00
30967;BME280;17649;51.836;8.330;2023-01-23T04:33:55;102866.13;;;3.96;100.00
30967;BME280;17649;51.836;8.330;2023-01-23T04:36:55;102872.13;;;4.00;100.00
30967;BME280;17649;51.836;8.330;2023-01-23T04:39:55;102874.75;;;4.06;100.00
30967;BME280;17649;51.836;8.330;2023-01-23T04:42:56;102873.91;;;4.07;100.00
30967;BME280;17649;51.836;8.330;2023-01-23T04:45:56;102868.69;;;3.98;100.00
30967;BME280;17649;51.836;8.330;2023-01-23T04:48:57;102878.06;;;3.96;100.00
30967;BME280;17649;51.836;8.330;2023-01-23T04:51:57;102878.94;;;3.96;100.00
30967;BME280;17649;51.836;8.330;2023-01-23T04:54:57;102879.00;;;4.04;100.00
30967;BME280;17649;51.836;8.330;2023-01-23T04:57:58;102880.75;;;4.12;100.00
30967;BME280;17649;51.836;8.330;2023-01-23T05:01:03;102891.88;;;4.13;100.00
30967;BME280;17649;51.836;8.330;2023-01-23T05:04:04;102887.59;;;4.13;100.00
30967;BME280;17649;51.836;8.330;2023-01-23T05:07:04;102891.88;;;4.14;100.00
30967;BME280;17649;51.836;8.330;2023-01-23T05:10:05;102896.16;;;4.14;100.00
30967;BME280;17649;51.836;8.330;2023-01-23T05:13:05;102897.94;;;4.24;100.00
30967;BME280;17649;51.836;8.330;2023-01-23T05:16:06;102900.44;;;4.16;100.00
30967;BME280;17649;51.836;8.330;2023-01-23T05:19:06;102891.09;;;4.22;100.00
30967;BME280;17649;51.836;8.330;2023-01-23T05:22:07;102892.78;;;4.18;100.00
30967;BME280;17649;51.836;8.330;2023-01-23T05:25:07;102882.47;;;4.12;100.00
30967;BME280;17649;51.836;8.330;2023-01-23T05:28:07;102883.38;;;4.18;100.00
30967;BME280;17649;51.836;8.330;2023-01-23T05:31:08;102885.09;;;4.21;100.00
30967;BME280;17649;51.836;8.330;2023-01-23T05:34:08;102881.63;;;4.13;100.00
30967;BME280;17649;51.836;8.330;2023-01-23T05:37:08;102893.44;;;3.93;100.00
30967;BME280;17649;51.836;8.330;2023-01-23T05:40:10;102893.28;;;3.76;100.00
30967;BME280;17649;51.836;8.330;2023-01-23T05:43:13;102898.41;;;3.79;100.00
30967;BME280;17649;51.836;8.330;2023-01-23T05:46:14;102912.06;;;3.76;100.00
30967;BME280;17649;51.836;8.330;2023-01-23T05:49:15;102919.63;;;3.67;100.00
30967;BME280;17649;51.836;8.330;2023-01-23T05:52:16;102928.03;;;3.54;100.00
30967;BME280;17649;51.836;8.330;2023-01-23T05:55:16;102933.31;;;3.69;100.00
30967;BME280;17649;51.836;8.330;2023-01-23T05:58:17;102945.38;;;3.81;100.00
30967;BME280;17649;51.836;8.330;2023-01-23T06:01:17;102939.56;;;3.97;100.00
30967;BME280;17649;51.836;8.330;2023-01-23T06:04:18;102937.09;;;4.08;100.00
30967;BME280;17649;51.836;8.330;2023-01-23T06:07:19;102945.75;;;4.19;100.00
30967;BME280;17649;51.836;8.330;2023-01-23T06:10:19;102942.34;;;4.20;100.00
30967;BME280;17649;51.836;8.330;2023-01-23T06:13:19;102960.31;;;4.25;100.00
30967;BME280;17649;51.836;8.330;2023-01-23T06:16:20;102952.63;;;4.28;100.00
30967;BME280;17649;51.836;8.330;2023-01-23T06:19:20;102953.47;;;4.27;100.00
30967;BME280;17649;51.836;8.330;2023-01-23T06:22:21;102956.88;;;4.23;100.00
30967;BME280;17649;51.836;8.330;2023-01-23T06:25:21;102967.84;;;4.06;100.00
30967;BME280;17649;51.836;8.330;2023-01-23T06:28:22;102957.47;;;3.93;100.00
30967;BME280;17649;51.836;8.330;2023-01-23T06:31:23;102962.72;;;4.08;100.00
30967;BME280;17649;51.836;8.330;2023-01-23T06:34:23;102972.13;;;4.07;100.00
30967;BME280;17649;51.836;8.330;2023-01-23T06:37:24;102969.44;;;3.95;100.00
30967;BME280;17649;51.836;8.330;2023-01-23T06:40:24;102977.22;;;4.03;100.00
30967;BME280;17649;51.836;8.330;2023-01-23T06:43:25;102977.25;;;4.07;100.00
30967;BME280;17649;51.836;8.330;2023-01-23T06:46:25;102976.25;;;3.95;100.00
30967;BME280;17649;51.836;8.330;2023-01-23T06:49:25;102982.25;;;3.97;100.00
30967;BME280;17649;51.836;8.330;2023-01-23T06:52:26;102990.88;;;4.02;100.00
30967;BME280;17649;51.836;8.330;2023-01-23T06:55:27;102995.19;;;4.10;100.00
30967;BME280;17649;51.836;8.330;2023-01-23T06:58:27;103001.16;;;4.09;100.00
30967;BME280;17649;51.836;8.330;2023-01-23T07:01:28;103006.38;;;4.17;100.00
30967;BME280;17649;51.836;8.330;2023-01-23T07:04:28;103015.81;;;4.19;100.00
30967;BME280;17649;51.836;8.330;2023-01-23T07:07:28;103018.31;;;4.16;100.00
30967;BME280;17649;51.836;8.330;2023-01-23T07:10:29;103017.50;;;4.19;100.00
30967;BME280;17649;51.836;8.330;2023-01-23T07:13:31;103019.25;;;4.23;100.00
30967;BME280;17649;51.836;8.330;2023-01-23T07:16:31;103018.28;;;4.13;100.00
30967;BME280;17649;51.836;8.330;2023-01-23T07:19:34;103025.91;;;4.07;100.00
30967;BME280;17649;51.836;8.330;2023-01-23T07:22:34;103025.88;;;4.03;100.00
30967;BME280;17649;51.836;8.330;2023-01-23T07:25:34;103027.53;;;3.98;100.00
30967;BME280;17649;51.836;8.330;2023-01-23T07:28:36;103018.81;;;3.83;100.00
30967;BME280;17649;51.836;8.330;2023-01-23T07:31:36;103034.28;;;3.89;100.00
30967;BME280;17649;51.836;8.330;2023-01-23T07:34:36;103032.56;;;3.88;100.00
30967;BME280;17649;51.836;8.330;2023-01-23T07:37:37;103038.31;;;3.71;100.00
30967;BME280;17649;51.836;8.330;2023-01-23T07:40:37;103033.41;;;3.87;100.00
30967;BME280;17649;51.836;8.330;2023-01-23T07:43:38;103031.78;;;3.96;100.00
30967;BME280;17649;51.836;8.330;2023-01-23T07:46:38;103049.78;;;4.02;100.00
30967;BME280;17649;51.836;8.330;2023-01-23T07:49:38;103043.81;;;4.03;100.00
30967;BME280;17649;51.836;8.330;2023-01-23T07:52:39;103038.75;;;4.09;100.00
30967;BME280;17649;51.836;8.330;2023-01-23T07:55:39;103040.56;;;4.17;100.00
30967;BME280;17649;51.836;8.330;2023-01-23T07:58:39;103044.03;;;4.26;100.00
30967;BME280;17649;51.836;8.330;2023-01-23T08:01:40;103041.47;;;4.27;100.00
30967;BME280;17649;51.836;8.330;2023-01-23T08:04:40;103058.69;;;4.37;100.00
30967;BME280;17649;51.836;8.330;2023-01-23T08:07:40;103058.66;;;4.34;100.00
30967;BME280;17649;51.836;8.330;2023-01-23T08:10:41;103060.38;;;4.34;100.00
30967;BME280;17649;51.836;8.330;2023-01-23T08:13:41;103054.44;;;4.41;100.00
30967;BME280;17649;51.836;8.330;2023-01-23T08:16:42;103068.19;;;4.47;100.00
30967;BME280;17649;51.836;8.330;2023-01-23T08:19:42;103070.78;;;4.54;100.00
30967;BME280;17649;51.836;8.330;2023-01-23T08:22:42;103067.41;;;4.59;100.00
30967;BME280;17649;51.836;8.330;2023-01-23T08:25:43;103058.94;;;4.65;100.00
30967;BME280;17649;51.836;8.330;2023-01-23T08:28:43;103063.09;;;4.52;100.00
30967;BME280;17649;51.836;8.330;2023-01-23T08:31:44;103060.44;;;4.43;100.00
30967;BME280;17649;51.836;8.330;2023-01-23T08:34:45;103063.09;;;4.52;100.00
30967;BME280;17649;51.836;8.330;2023-01-23T08:37:45;103055.28;;;4.41;100.00
30967;BME280;17649;51.836;8.330;2023-01-23T08:40:46;103059.72;;;4.58;100.00
30967;BME280;17649;51.836;8.330;2023-01-23T08:43:47;103062.34;;;4.65;100.00
30967;BME280;17649;51.836;8.330;2023-01-23T08:46:47;103065.81;;;4.70;100.00
30967;BME280;17649;51.836;8.330;2023-01-23T08:49:48;103059.91;;;4.84;100.00
30967;BME280;17649;51.836;8.330;2023-01-23T08:52:49;103067.72;;;4.94;100.00
30967;BME280;17649;51.836;8.330;2023-01-23T08:55:51;103071.13;;;4.96;100.00
30967;BME280;17649;51.836;8.330;2023-01-23T08:58:51;103069.53;;;5.14;100.00
30967;BME280;17649;51.836;8.330;2023-01-23T09:01:52;103071.19;;;5.05;100.00
30967;BME280;17649;51.836;8.330;2023-01-23T09:04:52;103073.78;;;5.07;100.00
30967;BME280;17649;51.836;8.330;2023-01-23T09:07:52;103070.41;;;5.20;100.00
30967;BME280;17649;51.836;8.330;2023-01-23T09:10:53;103072.22;;;5.33;100.00
30967;BME280;17649;51.836;8.330;2023-01-23T09:13:53;103073.06;;;5.31;100.00
30967;BME280;17649;51.836;8.330;2023-01-23T09:16:53;103073.00;;;5.20;100.00
30967;BME280;17649;51.836;8.330;2023-01-23T09:19:54;103077.31;;;5.24;100.00
30967;BME280;17649;51.836;8.330;2023-01-23T09:22:54;103082.47;;;5.30;100.00
30967;BME280;17649;51.836;8.330;2023-01-23T09:26:01;103080.00;;;5.47;100.00
30967;BME280;17649;51.836;8.330;2023-01-23T09:29:01;103089.47;;;5.54;100.00
30967;BME280;17649;51.836;8.330;2023-01-23T09:32:02;103097.16;;;5.51;100.00
30967;BME280;17649;51.836;8.330;2023-01-23T09:35:03;103089.41;;;5.45;100.00
30967;BME280;17649;51.836;8.330;2023-01-23T09:38:04;103100.56;;;5.50;100.00
30967;BME280;17649;51.836;8.330;2023-01-23T09:41:09;103092.03;;;5.51;100.00
30967;BME280;17649;51.836;8.330;2023-01-23T09:44:23;103098.91;;;5.61;100.00
30967;BME280;17649;51.836;8.330;2023-01-23T09:47:37;103095.41;;;5.50;100.00
30967;BME280;17649;51.836;8.330;2023-01-23T09:50:47;103104.81;;;5.48;100.00
30967;BME280;17649;51.836;8.330;2023-01-23T09:53:55;103102.22;;;5.41;100.00
30967;BME280;17649;51.836;8.330;2023-01-23T09:57:00;103106.50;;;5.40;100.00
30967;BME280;17649;51.836;8.330;2023-01-23T10:00:14;103105.66;;;5.41;100.00
30967;BME280;17649;51.836;8.330;2023-01-23T10:03:16;103100.59;;;5.56;100.00
30967;BME280;17649;51.836;8.330;2023-01-23T10:06:23;103100.59;;;5.59;100.00
30967;BME280;17649;51.836;8.330;2023-01-23T10:22:47;103098.13;;;5.75;100.00
30967;BME280;17649;51.836;8.330;2023-01-23T10:25:50;103111.75;;;5.64;100.00
30967;BME280;17649;51.836;8.330;2023-01-23T10:28:54;103102.41;;;5.74;100.00
30967;BME280;17649;51.836;8.330;2023-01-23T10:31:57;103110.09;;;5.66;100.00
30967;BME280;17649;51.836;8.330;2023-01-23T10:39:01;103108.31;;;5.62;100.00
30967;BME280;17649;51.836;8.330;2023-01-23T10:42:04;103110.09;;;5.69;100.00
30967;BME280;17649;51.836;8.330;2023-01-23T10:45:15;103105.03;;;5.89;100.00
30967;BME280;17649;51.836;8.330;2023-01-23T10:48:39;103111.81;;;5.74;100.00
30967;BME280;17649;51.836;8.330;2023-01-23T10:51:45;103111.81;;;5.69;100.00
30967;BME280;17649;51.836;8.330;2023-01-23T10:54:46;103110.91;;;5.62;100.00
30967;BME280;17649;51.836;8.330;2023-01-23T10:57:48;103094.69;;;5.71;100.00
30967;BME280;17649;51.836;8.330;2023-01-23T11:00:52;103098.13;;;5.78;100.00
30967;BME280;17649;51.836;8.330;2023-01-23T11:03:52;103103.25;;;5.68;100.00
30967;BME280;17649;51.836;8.330;2023-01-23T11:10:17;103081.84;;;5.76;100.00
30967;BME280;17649;51.836;8.330;2023-01-23T11:13:27;103083.56;;;5.75;100.00
30967;BME280;17649;51.836;8.330;2023-01-23T11:16:29;103082.75;;;5.87;100.00
30967;BME280;17649;51.836;8.330;2023-01-23T11:19:31;103082.75;;;5.88;100.00
30967;BME280;17649;51.836;8.330;2023-01-23T11:22:35;103085.31;;;5.82;100.00
30967;BME280;17649;51.836;8.330;2023-01-23T11:28:47;103077.72;;;6.14;100.00
30967;BME280;17649;51.836;8.330;2023-01-23T11:31:51;103081.97;;;6.03;100.00
30967;BME280;17649;51.836;8.330;2023-01-23T11:35:04;103072.59;;;6.20;100.00
30967;BME280;17649;51.836;8.330;2023-01-23T11:38:12;103075.19;;;6.26;100.00
30967;BME280;17649;51.836;8.330;2023-01-23T11:41:15;103074.34;;;6.26;100.00
30967;BME280;17649;51.836;8.330;2023-01-23T11:44:18;103071.75;;;6.27;100.00
30967;BME280;17649;51.836;8.330;2023-01-23T11:50:34;103067.41;;;6.02;100.00
30967;BME280;17649;51.836;8.330;2023-01-23T11:53:59;103073.41;;;6.06;100.00
30967;BME280;17649;51.836;8.330;2023-01-23T11:57:32;103068.28;;;6.07;100.00
30967;BME280;17649;51.836;8.330;2023-01-23T12:04:24;103065.69;;;6.07;100.00
30967;BME280;17649;51.836;8.330;2023-01-23T12:07:41;103058.88;;;6.20;100.00
30967;BME280;17649;51.836;8.330;2023-01-23T12:13:57;103053.75;;;6.17;100.00
30967;BME280;17649;51.836;8.330;2023-01-23T12:17:26;103051.22;;;6.43;100.00
30967;BME280;17649;51.836;8.330;2023-01-23T12:20:43;103058.91;;;6.63;100.00
30967;BME280;17649;51.836;8.330;2023-01-23T12:23:55;103061.50;;;6.55;100.00
30967;BME280;17649;51.836;8.330;2023-01-23T12:30:52;103064.94;;;6.57;100.00
30967;BME280;17649;51.836;8.330;2023-01-23T12:40:26;103056.34;;;6.76;100.00
30967;BME280;17649;51.836;8.330;2023-01-23T12:47:19;103046.91;;;6.68;100.00
30967;BME280;17649;51.836;8.330;2023-01-23T12:50:37;103058.06;;;6.85;100.00
30967;BME280;17649;51.836;8.330;2023-01-23T12:53:40;103060.66;;;6.86;100.00
30967;BME280;17649;51.836;8.330;2023-01-23T12:56:43;103052.06;;;6.84;100.00
30967;BME280;17649;51.836;8.330;2023-01-23T13:00:00;103055.50;;;6.64;100.00
30967;BME280;17649;51.836;8.330;2023-01-23T13:13:12;103078.66;;;6.41;100.00
30967;BME280;17649;51.836;8.330;2023-01-23T13:16:14;103076.03;;;6.35;100.00
30967;BME280;17649;51.836;8.330;2023-01-23T13:19:24;103075.19;;;6.26;100.00
30967;BME280;17649;51.836;8.330;2023-01-23T13:22:43;103079.47;;;6.35;100.00
30967;BME280;17649;51.836;8.330;2023-01-23T13:25:44;103085.47;;;6.30;100.00
30967;BME280;17649;51.836;8.330;2023-01-23T13:28:46;103083.72;;;6.12;100.00
30967;BME280;17649;51.836;8.330;2023-01-23T13:31:47;103080.34;;;6.25;100.00
30967;BME280;17649;51.836;8.330;2023-01-23T13:34:49;103088.88;;;6.22;100.00
30967;BME280;17649;51.836;8.330;2023-01-23T13:37:49;103085.44;;;6.16;100.00
30967;BME280;17649;51.836;8.330;2023-01-23T13:47:23;103074.31;;;6.21;100.00
30967;BME280;17649;51.836;8.330;2023-01-23T13:50:49;103087.19;;;6.29;100.00
30967;BME280;17649;51.836;8.330;2023-01-23T13:53:53;103090.63;;;6.36;100.00
30967;BME280;17649;51.836;8.330;2023-01-23T13:57:13;103080.34;;;6.36;100.00
30967;BME280;17649;51.836;8.330;2023-01-23T14:00:19;103088.88;;;6.21;100.00
30967;BME280;17649;51.836;8.330;2023-01-23T14:03:27;103088.06;;;6.25;100.00
30967;BME280;17649;51.836;8.330;2023-01-23T14:06:46;103088.88;;;6.19;100.00
30967;BME280;17649;51.836;8.330;2023-01-23T14:09:46;103079.44;;;6.20;100.00
30967;BME280;17649;51.836;8.330;2023-01-23T14:12:47;103091.44;;;6.21;100.00
30967;BME280;17649;51.836;8.330;2023-01-23T14:15:49;103091.44;;;6.18;100.00
30967;BME280;17649;51.836;8.330;2023-01-23T14:19:45;103102.53;;;6.00;100.00
30967;BME280;17649;51.836;8.330;2023-01-23T14:22:48;103108.53;;;5.99;100.00
30967;BME280;17649;51.836;8.330;2023-01-23T14:25:54;103110.25;;;6.06;100.00
30967;BME280;17649;51.836;8.330;2023-01-23T14:29:04;103109.41;;;6.03;100.00
30967;BME280;17649;51.836;8.330;2023-01-23T14:32:21;103111.06;;;5.93;100.00
30967;BME280;17649;51.836;8.330;2023-01-23T14:35:28;103115.34;;;5.92;100.00
30967;BME280;17649;51.836;8.330;2023-01-23T14:38:31;103122.97;;;5.79;100.00
30967;BME280;17649;51.836;8.330;2023-01-23T14:41:38;103121.25;;;5.79;100.00
30967;BME280;17649;51.836;8.330;2023-01-23T14:44:42;103116.94;;;5.75;100.00
30967;BME280;17649;51.836;8.330;2023-01-23T14:47:44;103114.44;;;5.86;100.00
30967;BME280;17649;51.836;8.330;2023-01-23T14:50:45;103122.16;;;5.83;100.00
30967;BME280;17649;51.836;8.330;2023-01-23T14:54:18;103116.16;;;5.87;100.00
30967;BME280;17649;51.836;8.330;2023-01-23T14:57:19;103128.09;;;5.77;100.00
30967;BME280;17649;51.836;8.330;2023-01-23T15:00:21;103134.91;;;5.69;100.00
30967;BME280;17649;51.836;8.330;2023-01-23T15:03:42;103132.38;;;5.75;100.00
30967;BME280;17649;51.836;8.330;2023-01-23T15:06:50;103126.38;;;5.78;100.00
30967;BME280;17649;51.836;8.330;2023-01-23T15:09:51;103126.38;;;5.70;100.00
30967;BME280;17649;51.836;8.330;2023-01-23T15:16:00;103131.41;;;5.56;100.00
30967;BME280;17649;51.836;8.330;2023-01-23T15:19:05;103127.84;;;5.34;100.00
30967;BME280;17649;51.836;8.330;2023-01-23T15:22:26;103125.25;;;5.27;100.00
30967;BME280;17649;51.836;8.330;2023-01-23T15:25:28;103126.94;;;5.26;100.00
30967;BME280;17649;51.836;8.330;2023-01-23T15:28:30;103122.72;;;5.33;100.00
30967;BME280;17649;51.836;8.330;2023-01-23T15:34:37;103127.81;;;5.27;100.00
30967;BME280;17649;51.836;8.330;2023-01-23T15:37:37;103124.38;;;5.25;100.00
30967;BME280;17649;51.836;8.330;2023-01-23T15:40:37;103118.41;;;5.26;100.00
30967;BME280;17649;51.836;8.330;2023-01-23T15:43:38;103118.38;;;5.23;100.00
30967;BME280;17649;51.836;8.330;2023-01-23T15:46:38;103113.19;;;5.20;100.00
30967;BME280;17649;51.836;8.330;2023-01-23T15:49:39;103115.63;;;5.01;100.00
30967;BME280;17649;51.836;8.330;2023-01-23T15:52:50;103114.88;;;5.12;100.00
30967;BME280;17649;51.836;8.330;2023-01-23T15:55:51;103125.97;;;5.07;100.00
30967;BME280;17649;51.836;8.330;2023-01-23T15:58:52;103125.13;;;5.08;100.00
30967;BME280;17649;51.836;8.330;2023-01-23T16:01:54;103126.88;;;5.14;100.00
30967;BME280;17649;51.836;8.330;2023-01-23T16:04:55;103125.22;;;5.21;100.00
30967;BME280;17649;51.836;8.330;2023-01-23T16:07:56;103129.50;;;5.22;100.00
30967;BME280;17649;51.836;8.330;2023-01-23T16:11:00;103122.69;;;5.27;100.00
30967;BME280;17649;51.836;8.330;2023-01-23T16:14:00;103111.47;;;5.16;100.00
30967;BME280;17649;51.836;8.330;2023-01-23T16:17:01;103116.69;;;5.23;100.00
30967;BME280;17649;51.836;8.330;2023-01-23T16:20:01;103107.19;;;5.13;100.00
30967;BME280;17649;51.836;8.330;2023-01-23T16:23:09;103111.47;;;5.13;100.00
30967;BME280;17649;51.836;8.330;2023-01-23T16:26:21;103107.19;;;5.15;100.00
30967;BME280;17649;51.836;8.330;2023-01-23T16:29:31;103104.50;;;4.95;100.00
30967;BME280;17649;51.836;8.330;2023-01-23T16:32:32;103112.97;;;4.88;100.00
30967;BME280;17649;51.836;8.330;2023-01-23T16:35:32;103122.34;;;4.83;100.00
30967;BME280;17649;51.836;8.330;2023-01-23T16:38:32;103122.34;;;4.84;100.00
30967;BME280;17649;51.836;8.330;2023-01-23T16:41:33;103124.81;;;4.73;100.00
30967;BME280;17649;51.836;8.330;2023-01-23T16:44:33;103124.78;;;4.67;100.00
30967;BME280;17649;51.836;8.330;2023-01-23T16:47:35;103129.06;;;4.70;100.00
30967;BME280;17649;51.836;8.330;2023-01-23T16:50:48;103124.81;;;4.72;100.00
30967;BME280;17649;51.836;8.330;2023-01-23T16:53:54;103112.81;;;4.69;100.00
30967;BME280;17649;51.836;8.330;2023-01-23T16:56:56;103106.78;;;4.63;100.00
30967;BME280;17649;51.836;8.330;2023-01-23T16:59:57;103118.66;;;4.55;100.00
30967;BME280;17649;51.836;8.330;2023-01-23T17:03:00;103120.41;;;4.59;100.00
30967;BME280;17649;51.836;8.330;2023-01-23T17:06:01;103125.59;;;4.65;100.00
30967;BME280;17649;51.836;8.330;2023-01-23T17:09:01;103134.19;;;4.68;100.00
30967;BME280;17649;51.836;8.330;2023-01-23T17:12:03;103131.63;;;4.68;100.00
30967;BME280;17649;51.836;8.330;2023-01-23T17:15:03;103129.06;;;4.68;100.00
30967;BME280;17649;51.836;8.330;2023-01-23T17:18:05;103118.78;;;4.67;100.00